Time;durP1;ratioP1;P1;durP2;ratioP2;P2;SDS_P1;SDS_P2;PMS_P1;PMS_P2;Temp;Humidity;BMP_temperature;BMP_pressure;BME280_temperature;BME280_humidity;BME280_pressure;Samples;Min_cycle;Max_cycle;Signal;HPM_P1;HPM_P2
2023/11/04 00:02:22;;;;;;;4.93;2.33;;;;;;;;;;5070807;28;20071;-55
2023/11/04 00:04:51;;;;;;;5.85;2.40;;;;;;;;;;5063906;28;20049;-57
2023/11/04 00:07:17;;;;;;;4.10;2.13;;;;;;;;;;5053883;28;20068;-63
2023/11/04 00:09:44;;;;;;;5.22;2.10;;;;;;;;;;5055235;28;20560;-67
2023/11/04 00:12:13;;;;;;;4.40;2.15;;;;;;;;;;5055304;28;20085;-64
2023/11/04 00:14:41;;;;;;;5.65;2.10;;;;;;;;;;5059380;28;20048;-56
2023/11/04 00:17:07;;;;;;;6.68;2.90;;;;;;;;;;5056729;28;20048;-51
2023/11/04 00:19:35;;;;;;;3.65;1.90;;;;;;;;;;5071850;28;20084;-55
2023/11/04 00:22:02;;;;;;;4.38;2.15;;;;;;;;;;5066517;28;20080;-53
2023/11/04 00:24:30;;;;;;;5.45;2.50;;;;;;;;;;5058707;28;20037;-55
2023/11/04 00:26:58;;;;;;;5.07;2.40;;;;;;;;;;5060544;28;20542;-56
2023/11/04 00:29:25;;;;;;;4.45;1.92;;;;;;;;;;5061334;28;20106;-55
2023/11/04 00:31:51;;;;;;;5.85;2.50;;;;;;;;;;5064336;28;20044;-55
2023/11/04 00:34:18;;;;;;;5.78;2.90;;;;;;;;;;5060271;28;20131;-56
2023/11/04 00:36:47;;;;;;;7.10;2.42;;;;;;;;;;5058647;28;20099;-53
2023/11/04 00:39:14;;;;;;;5.57;2.58;;;;;;;;;;5071009;28;20131;-50
2023/11/04 00:41:43;;;;;;;3.70;1.65;;;;;;;;;;5066109;28;20129;-54
2023/11/04 00:44:09;;;;;;;5.88;2.40;;;;;;;;;;5052040;28;20073;-57
2023/11/04 00:46:35;;;;;;;4.15;1.80;;;;;;;;;;5056693;28;20119;-53
2023/11/04 00:49:03;;;;;;;4.10;1.80;;;;;;;;;;5069358;28;20128;-56
2023/11/04 00:51:29;;;;;;;4.53;2.25;;;;;;;;;;5056942;28;20056;-55
2023/11/04 00:53:57;;;;;;;4.20;1.83;;;;;;;;;;5062115;28;20536;-56
2023/11/04 00:56:24;;;;;;;5.35;2.00;;;;;;;;;;5067122;28;20580;-55
2023/11/04 00:58:52;;;;;;;3.47;1.70;;;;;;;;;;5068694;28;20135;-56
2023/11/04 01:01:17;;;;;;;3.05;1.60;;;;;;;;;;5065263;28;20045;-55
2023/11/04 01:03:44;;;;;;;4.65;1.92;;;;;;;;;;5058609;28;20045;-55
2023/11/04 01:06:11;;;;;;;4.07;1.88;;;;;;;;;;5066260;28;20533;-57
2023/11/04 01:08:38;;;;;;;5.10;1.88;;;;;;;;;;5071275;28;20072;-53
2023/11/04 01:11:06;;;;;;;5.53;2.25;;;;;;;;;;5071901;28;20040;-56
2023/11/04 01:13:34;;;;;;;4.95;2.00;;;;;;;;;;5071702;28;20083;-54
2023/11/04 01:16:01;;;;;;;5.18;2.00;;;;;;;;;;5064403;28;20139;-57
2023/11/04 01:18:28;;;;;;;4.57;2.00;;;;;;;;;;5071522;28;20134;-57
2023/11/04 01:20:55;;;;;;;5.55;2.58;;;;;;;;;;5065439;28;20104;-58
2023/11/04 01:23:22;;;;;;;5.18;2.03;;;;;;;;;;5071612;28;20478;-54
2023/11/04 01:25:48;;;;;;;5.10;1.90;;;;;;;;;;5066485;28;20532;-57
2023/11/04 01:28:16;;;;;;;4.18;2.60;;;;;;;;;;5070701;28;20420;-55
2023/11/04 01:30:43;;;;;;;5.50;2.30;;;;;;;;;;5060007;28;20136;-55
2023/11/04 01:33:10;;;;;;;4.47;1.80;;;;;;;;;;5070467;28;20079;-58
2023/11/04 01:35:37;;;;;;;4.93;1.90;;;;;;;;;;5055646;28;20099;-54
2023/11/04 01:38:03;;;;;;;5.78;2.58;;;;;;;;;;5051525;28;20141;-57
2023/11/04 01:40:30;;;;;;;3.72;2.05;;;;;;;;;;5051359;28;20053;-58
2023/11/04 01:42:57;;;;;;;6.00;2.13;;;;;;;;;;5070063;28;20476;-59
2023/11/04 01:45:25;;;;;;;4.00;1.90;;;;;;;;;;5070522;28;20232;-56
2023/11/04 01:47:52;;;;;;;4.05;1.90;;;;;;;;;;5071089;28;20539;-57
2023/11/04 01:50:20;;;;;;;5.28;2.20;;;;;;;;;;5066933;28;20048;-54
2023/11/04 01:52:47;;;;;;;3.58;1.70;;;;;;;;;;5067330;28;20052;-55
2023/11/04 01:55:14;;;;;;;3.40;1.70;;;;;;;;;;5070379;28;20044;-56
2023/11/04 01:57:41;;;;;;;5.32;1.80;;;;;;;;;;5071169;28;20079;-54
2023/11/04 02:00:09;;;;;;;3.65;1.83;;;;;;;;;;5070922;28;20080;-56
2023/11/04 02:02:37;;;;;;;3.38;1.60;;;;;;;;;;5062732;28;20135;-55
2023/11/04 02:05:05;;;;;;;3.45;1.60;;;;;;;;;;5060137;28;20098;-57
2023/11/04 02:07:32;;;;;;;6.18;2.20;;;;;;;;;;5068586;28;20060;-52
2023/11/04 02:09:59;;;;;;;4.05;2.00;;;;;;;;;;5069286;28;20083;-56
2023/11/04 02:12:26;;;;;;;4.53;2.00;;;;;;;;;;5067494;28;20143;-57
2023/11/04 02:14:53;;;;;;;3.60;1.80;;;;;;;;;;5067677;28;20040;-57
2023/11/04 02:17:21;;;;;;;5.57;2.40;;;;;;;;;;5057415;28;20055;-54
2023/11/04 02:19:49;;;;;;;5.22;2.05;;;;;;;;;;5050785;28;20053;-54
2023/11/04 02:22:17;;;;;;;4.57;2.22;;;;;;;;;;5059316;28;20120;-53
2023/11/04 02:24:44;;;;;;;5.82;2.10;;;;;;;;;;5068815;28;20068;-58
2023/11/04 02:27:11;;;;;;;5.25;2.38;;;;;;;;;;5050742;28;20106;-59
2023/11/04 02:29:38;;;;;;;3.58;2.10;;;;;;;;;;5050879;28;20048;-58
2023/11/04 02:32:06;;;;;;;3.22;1.55;;;;;;;;;;5050675;28;20049;-56
2023/11/04 02:34:32;;;;;;;4.07;1.55;;;;;;;;;;5064531;28;20506;-55
2023/11/04 02:37:00;;;;;;;3.47;1.50;;;;;;;;;;5059578;28;20077;-55
2023/11/04 02:39:28;;;;;;;3.72;1.40;;;;;;;;;;5051297;28;20056;-56
2023/11/04 02:41:55;;;;;;;2.50;1.15;;;;;;;;;;5050986;28;20425;-51
2023/11/04 02:44:21;;;;;;;2.70;1.30;;;;;;;;;;5050490;28;20156;-55
2023/11/04 02:46:49;;;;;;;3.65;1.20;;;;;;;;;;5060479;28;20048;-57
2023/11/04 02:49:15;;;;;;;2.33;1.10;;;;;;;;;;5071133;28;20051;-56
2023/11/04 02:51:42;;;;;;;3.95;1.60;;;;;;;;;;5070600;28;20083;-55
2023/11/04 02:54:09;;;;;;;2.88;1.50;;;;;;;;;;5069891;28;20153;-55
2023/11/04 02:56:37;;;;;;;3.15;1.48;;;;;;;;;;5070579;28;20083;-56
2023/11/04 02:59:03;;;;;;;3.90;1.30;;;;;;;;;;5070625;28;20087;-58
2023/11/04 03:01:29;;;;;;;3.10;1.40;;;;;;;;;;5070733;28;20421;-58
2023/11/04 03:03:56;;;;;;;2.90;1.23;;;;;;;;;;5070434;28;20048;-58
2023/11/04 03:06:24;;;;;;;3.47;1.50;;;;;;;;;;5064630;28;20081;-60
2023/11/04 03:08:51;;;;;;;4.95;1.40;;;;;;;;;;5067128;28;20471;-60
2023/11/04 03:11:18;;;;;;;4.18;1.25;;;;;;;;;;5062845;28;20041;-57
2023/11/04 03:13:46;;;;;;;2.67;1.48;;;;;;;;;;5065589;28;20041;-55
2023/11/04 03:16:19;;;;;;;3.30;1.77;;;;;;;;;;5070645;28;20515;-54
2023/11/04 03:18:46;;;;;;;3.50;1.67;;;;;;;;;;5065730;28;20135;-56
2023/11/04 03:21:12;;;;;;;3.55;1.48;;;;;;;;;;5073965;28;20153;-55
2023/11/04 03:23:39;;;;;;;3.92;1.70;;;;;;;;;;5066366;28;20086;-56
2023/11/04 03:26:07;;;;;;;3.38;1.38;;;;;;;;;;5064739;28;20056;-57
2023/11/04 03:28:34;;;;;;;2.58;1.25;;;;;;;;;;5066895;28;20118;-57
2023/11/04 03:31:04;;;;;;;5.90;1.70;;;;;;;;;;5069238;28;20478;-58
2023/11/04 03:33:31;;;;;;;3.30;1.48;;;;;;;;;;5065657;28;20625;-56
2023/11/04 03:35:57;;;;;;;3.40;1.60;;;;;;;;;;5069591;28;20127;-58
2023/11/04 03:38:24;;;;;;;3.88;1.83;;;;;;;;;;5064669;28;20083;-55
2023/11/04 03:40:51;;;;;;;4.47;1.50;;;;;;;;;;5065706;28;20049;-57
2023/11/04 03:43:18;;;;;;;3.67;1.58;;;;;;;;;;5069849;28;20083;-54
2023/11/04 03:45:45;;;;;;;4.18;1.52;;;;;;;;;;5070828;28;20079;-56
2023/11/04 03:48:13;;;;;;;3.42;1.50;;;;;;;;;;5053819;28;20052;-57
2023/11/04 03:50:40;;;;;;;3.33;1.50;;;;;;;;;;5067713;28;20411;-55
2023/11/04 03:53:07;;;;;;;3.30;1.35;;;;;;;;;;5066565;28;20064;-60
2023/11/04 03:55:34;;;;;;;2.90;1.20;;;;;;;;;;5072971;28;20040;-54
2023/11/04 03:58:00;;;;;;;3.00;1.05;;;;;;;;;;5064079;28;20044;-55
2023/11/04 04:00:27;;;;;;;3.13;1.17;;;;;;;;;;5068642;28;20074;-54
2023/11/04 04:02:54;;;;;;;2.67;1.00;;;;;;;;;;5063112;28;20059;-54
2023/11/04 04:05:22;;;;;;;2.35;1.00;;;;;;;;;;5052938;28;20077;-56
2023/11/04 04:07:50;;;;;;;1.83;1.00;;;;;;;;;;5052984;28;20132;-55
2023/11/04 04:10:17;;;;;;;3.40;1.00;;;;;;;;;;5053173;28;20059;-52
2023/11/04 04:12:44;;;;;;;2.22;0.90;;;;;;;;;;5052802;28;20071;-53
2023/11/04 04:15:10;;;;;;;2.63;1.10;;;;;;;;;;5052749;28;20087;-53
2023/11/04 04:17:38;;;;;;;1.85;1.00;;;;;;;;;;5053234;28;20076;-58
2023/11/04 04:20:05;;;;;;;2.63;1.10;;;;;;;;;;5053270;28;20476;-57
2023/11/04 04:22:34;;;;;;;2.97;1.38;;;;;;;;;;5067984;28;20131;-57
2023/11/04 04:25:00;;;;;;;3.72;1.00;;;;;;;;;;5072487;28;20052;-59
2023/11/04 04:27:27;;;;;;;2.17;1.00;;;;;;;;;;5072098;28;20128;-58
2023/11/04 04:29:54;;;;;;;1.88;0.90;;;;;;;;;;5072622;28;20076;-57
2023/11/04 04:32:21;;;;;;;2.35;1.13;;;;;;;;;;5072973;28;20106;-57
2023/11/04 04:34:48;;;;;;;1.83;1.08;;;;;;;;;;5072390;28;20484;-54
2023/11/04 04:37:14;;;;;;;2.63;1.13;;;;;;;;;;5072460;28;20040;-57
2023/11/04 04:39:43;;;;;;;1.85;1.15;;;;;;;;;;5072465;28;20128;-58
2023/11/04 04:42:09;;;;;;;2.03;0.98;;;;;;;;;;5072485;28;20080;-59
2023/11/04 04:44:37;;;;;;;2.47;1.13;;;;;;;;;;5072351;28;20040;-58
2023/11/04 04:47:03;;;;;;;2.90;1.13;;;;;;;;;;5072694;28;20052;-53
2023/11/04 04:49:30;;;;;;;2.83;1.10;;;;;;;;;;5072542;28;20479;-58
2023/11/04 04:51:57;;;;;;;2.50;1.10;;;;;;;;;;5070410;28;20124;-56
2023/11/04 04:54:24;;;;;;;2.67;0.93;;;;;;;;;;5063975;28;20468;-56
2023/11/04 04:56:52;;;;;;;2.65;1.10;;;;;;;;;;5062178;28;20041;-58
2023/11/04 04:59:18;;;;;;;3.00;1.23;;;;;;;;;;5069486;28;20091;-53
2023/11/04 05:01:45;;;;;;;2.30;1.15;;;;;;;;;;5055150;28;20079;-57
2023/11/04 05:04:13;;;;;;;2.30;0.93;;;;;;;;;;5052389;28;20072;-60
2023/11/04 05:06:40;;;;;;;2.10;1.10;;;;;;;;;;5052250;28;20083;-56
2023/11/04 05:09:07;;;;;;;1.85;0.95;;;;;;;;;;5055564;28;20132;-56
2023/11/04 05:11:33;;;;;;;3.22;1.25;;;;;;;;;;5069187;28;20412;-57
2023/11/04 05:14:03;;;;;;;2.35;1.80;;;;;;;;;;5052882;28;20083;-57
2023/11/04 05:16:30;;;;;;;2.15;1.10;;;;;;;;;;5061643;28;20044;-58
2023/11/04 05:18:56;;;;;;;3.35;1.00;;;;;;;;;;5066870;28;20048;-59
2023/11/04 05:21:24;;;;;;;2.13;1.17;;;;;;;;;;5071760;28;20084;-57
2023/11/04 05:23:51;;;;;;;3.13;1.00;;;;;;;;;;5068141;28;20083;-58
2023/11/04 05:26:18;;;;;;;1.77;1.05;;;;;;;;;;5065581;28;20059;-57
2023/11/04 05:28:45;;;;;;;1.73;1.00;;;;;;;;;;5071671;28;20055;-57
2023/11/04 05:31:13;;;;;;;1.80;1.00;;;;;;;;;;5068325;28;20079;-53
2023/11/04 05:33:41;;;;;;;2.38;1.13;;;;;;;;;;5055398;28;20045;-55
2023/11/04 05:36:10;;;;;;;2.47;1.13;;;;;;;;;;5055925;28;20040;-58
2023/11/04 05:38:37;;;;;;;6.82;3.28;;;;;;;;;;5070673;28;20754;-56
2023/11/04 05:41:04;;;;;;;6.97;3.35;;;;;;;;;;5071716;28;20477;-54
2023/11/04 05:43:31;;;;;;;3.88;1.90;;;;;;;;;;5063141;28;20131;-57
2023/11/04 05:45:58;;;;;;;2.45;1.40;;;;;;;;;;5067817;28;20076;-57
2023/11/04 05:48:26;;;;;;;1.85;1.10;;;;;;;;;;5070320;28;20582;-56
2023/11/04 05:50:53;;;;;;;2.97;1.20;;;;;;;;;;5064464;28;20045;-58
2023/11/04 05:53:20;;;;;;;2.40;1.30;;;;;;;;;;5069694;28;20050;-54
2023/11/04 05:55:47;;;;;;;3.60;1.50;;;;;;;;;;5071116;28;20106;-57
2023/11/04 05:58:14;;;;;;;2.90;1.40;;;;;;;;;;5059276;28;20092;-58
2023/11/04 06:00:41;;;;;;;2.17;1.25;;;;;;;;;;5061530;28;20044;-54
2023/11/04 06:03:08;;;;;;;2.60;1.17;;;;;;;;;;5064715;28;20065;-54
2023/11/04 06:05:37;;;;;;;2.50;1.20;;;;;;;;;;5067515;28;20041;-56
2023/11/04 06:08:04;;;;;;;2.85;1.73;;;;;;;;;;5070763;28;20067;-54
2023/11/04 06:10:30;;;;;;;3.83;1.48;;;;;;;;;;5071845;28;20135;-56
2023/11/04 06:12:57;;;;;;;2.75;1.50;;;;;;;;;;5067380;28;20072;-55
2023/11/04 06:15:24;;;;;;;3.53;1.20;;;;;;;;;;5063863;28;20337;-56
2023/11/04 06:17:51;;;;;;;2.42;1.25;;;;;;;;;;5070010;28;20396;-53
2023/11/04 06:20:18;;;;;;;1.88;1.10;;;;;;;;;;5066546;28;20053;-56
2023/11/04 06:22:46;;;;;;;2.97;1.27;;;;;;;;;;5071338;28;20048;-56
2023/11/04 06:25:13;;;;;;;2.17;1.00;;;;;;;;;;5071237;28;20421;-57
2023/11/04 06:27:40;;;;;;;3.08;1.52;;;;;;;;;;5066797;28;20041;-57
2023/11/04 06:30:08;;;;;;;2.38;1.30;;;;;;;;;;5064982;28;20114;-58
2023/11/04 06:32:34;;;;;;;2.67;1.27;;;;;;;;;;5055632;28;20053;-53
2023/11/04 06:35:01;;;;;;;2.47;1.23;;;;;;;;;;5061980;28;20059;-55
2023/11/04 06:37:28;;;;;;;3.13;1.40;;;;;;;;;;5071461;28;20045;-54
2023/11/04 06:39:57;;;;;;;2.72;1.40;;;;;;;;;;5071065;28;20076;-55
2023/11/04 06:42:26;;;;;;;2.47;1.27;;;;;;;;;;5071188;28;20440;-56
2023/11/04 06:44:53;;;;;;;2.80;1.40;;;;;;;;;;5067965;28;20040;-56
2023/11/04 06:47:22;;;;;;;3.67;1.60;;;;;;;;;;5071266;28;20361;-57
2023/11/04 06:49:49;;;;;;;2.78;1.30;;;;;;;;;;5070459;28;20131;-56
2023/11/04 06:52:16;;;;;;;3.42;1.55;;;;;;;;;;5074797;28;20508;-56
2023/11/04 06:54:43;;;;;;;2.90;1.17;;;;;;;;;;5071733;28;20059;-56
2023/11/04 06:57:11;;;;;;;2.80;1.35;;;;;;;;;;5067721;28;20077;-56
2023/11/04 06:59:40;;;;;;;4.47;1.98;;;;;;;;;;5072089;28;20086;-57
2023/11/04 07:02:07;;;;;;;3.00;1.35;;;;;;;;;;5070462;28;20518;-57
2023/11/04 07:04:34;;;;;;;2.50;1.30;;;;;;;;;;5066355;28;20041;-54
2023/11/04 07:07:01;;;;;;;3.60;1.27;;;;;;;;;;5065505;28;20649;-55
2023/11/04 07:09:27;;;;;;;2.67;1.20;;;;;;;;;;5066910;28;20045;-54
2023/11/04 07:11:54;;;;;;;2.22;1.20;;;;;;;;;;5066120;28;20534;-56
2023/11/04 07:14:24;;;;;;;3.60;1.80;;;;;;;;;;5060519;28;20206;-56
2023/11/04 07:16:51;;;;;;;3.03;1.40;;;;;;;;;;5062917;28;20132;-56
2023/11/04 07:19:18;;;;;;;2.50;1.30;;;;;;;;;;5071775;28;20135;-52
2023/11/04 07:21:45;;;;;;;3.45;1.52;;;;;;;;;;5073901;28;20101;-56
2023/11/04 07:24:12;;;;;;;2.47;1.65;;;;;;;;;;5073963;28;20044;-54
2023/11/04 07:26:39;;;;;;;2.83;1.40;;;;;;;;;;5064571;28;20079;-56
2023/11/04 07:29:06;;;;;;;3.83;1.85;;;;;;;;;;5068421;28;20163;-55
2023/11/04 07:31:35;;;;;;;2.88;1.50;;;;;;;;;;5064809;28;20475;-54
2023/11/04 07:34:02;;;;;;;4.07;1.48;;;;;;;;;;5065564;28;20047;-53
2023/11/04 07:36:29;;;;;;;3.25;1.42;;;;;;;;;;5070809;28;20052;-56
2023/11/04 07:38:56;;;;;;;3.10;1.55;;;;;;;;;;5070477;28;20068;-54
2023/11/04 07:41:23;;;;;;;5.38;1.60;;;;;;;;;;5071128;28;20087;-56
2023/11/04 07:43:49;;;;;;;4.93;1.92;;;;;;;;;;5068049;28;20062;-56
2023/11/04 07:46:16;;;;;;;3.35;1.67;;;;;;;;;;5068006;28;20166;-56
2023/11/04 07:48:44;;;;;;;2.75;1.25;;;;;;;;;;5066165;28;20079;-56
2023/11/04 07:51:11;;;;;;;3.03;1.30;;;;;;;;;;5073690;28;20500;-53
2023/11/04 07:53:38;;;;;;;2.95;1.10;;;;;;;;;;5067616;28;20420;-56
2023/11/04 07:56:06;;;;;;;2.83;1.40;;;;;;;;;;5065885;28;20045;-57
2023/11/04 07:58:33;;;;;;;2.08;1.13;;;;;;;;;;5063881;28;20127;-56
2023/11/04 08:01:00;;;;;;;2.88;1.40;;;;;;;;;;5066164;28;20072;-57
2023/11/04 08:03:27;;;;;;;3.08;1.50;;;;;;;;;;5066183;28;20045;-55
2023/11/04 08:05:56;;;;;;;4.05;1.67;;;;;;;;;;5062622;28;20139;-54
2023/11/04 08:08:22;;;;;;;2.95;1.38;;;;;;;;;;5064461;28;20049;-56
2023/11/04 08:10:49;;;;;;;2.65;1.30;;;;;;;;;;5065529;28;20041;-56
2023/11/04 08:13:16;;;;;;;3.00;1.27;;;;;;;;;;5067841;28;20045;-56
2023/11/04 08:15:43;;;;;;;3.88;1.30;;;;;;;;;;5068492;28;20542;-56
2023/11/04 08:18:09;;;;;;;2.55;1.10;;;;;;;;;;5064279;28;20656;-55
2023/11/04 08:20:36;;;;;;;1.95;1.13;;;;;;;;;;5066311;28;20464;-51
2023/11/04 08:23:06;;;;;;;3.78;1.50;;;;;;;;;;5064931;28;20180;-54
2023/11/04 08:25:32;;;;;;;3.38;1.58;;;;;;;;;;5061219;28;20127;-56
2023/11/04 08:27:59;;;;;;;3.40;1.50;;;;;;;;;;5063210;28;20072;-55
2023/11/04 08:30:26;;;;;;;4.88;1.55;;;;;;;;;;5061825;28;20080;-56
2023/11/04 08:32:53;;;;;;;3.15;1.40;;;;;;;;;;5065011;28;20072;-57
2023/11/04 08:35:19;;;;;;;4.10;1.33;;;;;;;;;;5064961;28;20076;-55
2023/11/04 08:37:46;;;;;;;13.68;9.30;;;;;;;;;;5072524;28;20136;-57
2023/11/04 08:40:14;;;;;;;45.78;33.90;;;;;;;;;;5072746;28;20094;-55
2023/11/04 08:42:41;;;;;;;4.68;2.22;;;;;;;;;;5072531;28;20109;-56
2023/11/04 08:45:12;;;;;;;2.83;1.30;;;;;;;;;;5065379;28;20094;-55
2023/11/04 08:47:40;;;;;;;2.95;1.33;;;;;;;;;;5071936;28;20613;-56
2023/11/04 08:50:08;;;;;;;2.10;1.05;;;;;;;;;;5071693;28;20110;-54
2023/11/04 08:52:34;;;;;;;4.10;1.38;;;;;;;;;;5062856;28;20080;-51
2023/11/04 08:55:04;;;;;;;3.40;1.83;;;;;;;;;;5061928;28;20102;-56
2023/11/04 08:57:33;;;;;;;3.53;1.77;;;;;;;;;;5070524;28;20411;-55
2023/11/04 09:00:00;;;;;;;3.67;1.40;;;;;;;;;;5058951;28;20107;-54
2023/11/04 09:02:27;;;;;;;3.22;1.10;;;;;;;;;;5060316;28;20045;-54
2023/11/04 09:04:54;;;;;;;3.90;1.50;;;;;;;;;;5062376;28;20079;-56
2023/11/04 09:07:21;;;;;;;3.67;1.50;;;;;;;;;;5061778;28;20080;-57
2023/11/04 09:09:48;;;;;;;4.00;1.48;;;;;;;;;;5055753;28;20052;-55
2023/11/04 09:12:15;;;;;;;3.42;1.20;;;;;;;;;;5059583;28;20473;-61
2023/11/04 09:14:43;;;;;;;2.67;1.15;;;;;;;;;;5058863;28;20519;-64
2023/11/04 09:17:11;;;;;;;3.30;1.38;;;;;;;;;;5058099;28;20052;-63
2023/11/04 09:19:38;;;;;;;4.40;1.00;;;;;;;;;;5064992;28;20052;-55
2023/11/04 09:22:05;;;;;;;1.95;1.00;;;;;;;;;;5057825;28;20076;-53
2023/11/04 09:24:32;;;;;;;2.28;0.93;;;;;;;;;;5060722;28;20100;-54
2023/11/04 09:27:00;;;;;;;2.80;0.90;;;;;;;;;;5057558;28;20049;-54
2023/11/04 09:29:26;;;;;;;2.83;0.90;;;;;;;;;;5060650;28;20467;-68
2023/11/04 09:31:54;;;;;;;3.13;1.20;;;;;;;;;;5069775;28;20135;-53
2023/11/04 09:34:22;;;;;;;2.10;1.05;;;;;;;;;;5059957;28;20393;-63
2023/11/04 09:36:48;;;;;;;2.50;1.02;;;;;;;;;;5057311;28;20470;-48
2023/11/04 09:39:16;;;;;;;4.45;1.50;;;;;;;;;;5058205;28;20052;-54
2023/11/04 09:41:42;;;;;;;2.28;0.95;;;;;;;;;;5059481;28;20477;-56
2023/11/04 09:53:28;;;;;;;;;;;;;;;;;;5066719;28;20044;-60
2023/11/04 09:55:56;;;;;;;2.97;1.20;;;;;;;;;;5069916;28;19947;-51
2023/11/04 09:58:47;;;;;;;2.83;1.30;;;;;;;;;;5068694;28;20048;-52
2023/11/04 10:01:19;;;;;;;2.22;1.08;;;;;;;;;;5069761;28;20072;-55
2023/11/04 10:03:47;;;;;;;1.95;0.90;;;;;;;;;;5063260;28;20049;-52
2023/11/04 10:06:13;;;;;;;2.22;0.90;;;;;;;;;;5066109;28;20076;-63
2023/11/04 10:08:48;;;;;;;1.98;1.10;;;;;;;;;;5062694;28;20102;-55
2023/11/04 10:11:15;;;;;;;1.75;0.88;;;;;;;;;;5052863;28;20125;-53
2023/11/04 10:13:42;;;;;;;1.92;0.85;;;;;;;;;;5065685;28;20128;-55
2023/11/04 10:16:10;;;;;;;2.20;1.02;;;;;;;;;;5050924;28;20083;-56
2023/11/04 10:18:37;;;;;;;2.70;1.00;;;;;;;;;;5051283;28;20076;-55
2023/11/04 10:21:06;;;;;;;1.60;0.80;;;;;;;;;;5051179;28;20056;-53
2023/11/04 10:23:32;;;;;;;1.55;0.75;;;;;;;;;;5051109;28;20111;-55
2023/11/04 10:26:03;;;;;;;2.17;0.80;;;;;;;;;;5055152;28;20080;-54
2023/11/04 10:28:30;;;;;;;1.35;0.80;;;;;;;;;;5055952;28;20508;-55
2023/11/04 10:31:03;;;;;;;1.95;0.77;;;;;;;;;;5055322;28;20049;-52
2023/11/04 10:33:34;;;;;;;1.25;0.80;;;;;;;;;;5055062;28;20045;-54
2023/11/04 10:36:03;;;;;;;;;;;;;;;;;;5055731;28;20053;-52
2023/11/04 10:38:33;;;;;;;2.33;0.98;;;;;;;;;;5054999;28;19924;-54
2023/11/04 10:41:04;;;;;;;2.30;1.05;;;;;;;;;;5055111;28;20052;-50
2023/11/04 10:43:37;;;;;;;2.72;1.58;;;;;;;;;;5055220;28;20471;-51
2023/11/04 10:46:10;;;;;;;1.33;0.93;;;;;;;;;;5054671;28;20041;-50
2023/11/04 10:48:43;;;;;;;2.28;1.00;;;;;;;;;;5055132;28;20447;-53
2023/11/04 10:51:17;;;;;;;3.20;1.17;;;;;;;;;;5066966;28;20574;-55
2023/11/04 10:53:57;;;;;;;2.38;1.58;;;;;;;;;;5074873;28;20052;-52
2023/11/04 10:56:30;;;;;;;2.78;1.15;;;;;;;;;;5074882;28;20098;-52
2023/11/04 10:59:06;;;;;;;2.33;1.13;;;;;;;;;;5074614;28;20080;-54
2023/11/04 11:01:35;;;;;;;3.47;1.17;;;;;;;;;;5074403;28;20082;-52
2023/11/04 11:04:03;;;;;;;2.10;1.10;;;;;;;;;;5074425;28;20113;-52
2023/11/04 11:06:30;;;;;;;2.53;0.90;;;;;;;;;;5074525;28;20072;-51
2023/11/04 11:09:00;;;;;;;2.92;1.23;;;;;;;;;;5074567;28;20633;-55
2023/11/04 11:11:37;;;;;;;2.00;0.88;;;;;;;;;;5074833;28;20099;-55
2023/11/04 11:14:05;;;;;;;2.85;0.80;;;;;;;;;;5074630;28;20048;-54
2023/11/04 11:16:31;;;;;;;1.85;0.75;;;;;;;;;;5074488;28;20072;-51
2023/11/04 11:19:08;;;;;;;1.48;0.80;;;;;;;;;;5074699;28;20565;-54
2023/11/04 11:21:49;;;;;;;2.45;0.70;;;;;;;;;;5075381;28;20488;-56
2023/11/04 11:24:16;;;;;;;1.27;0.68;;;;;;;;;;5075455;28;20044;-55
2023/11/04 11:26:52;;;;;;;2.58;0.90;;;;;;;;;;5075094;28;20508;-56
2023/11/04 11:29:20;;;;;;;1.63;1.08;;;;;;;;;;5075809;28;20064;-53
2023/11/04 11:31:47;;;;;;;2.70;0.90;;;;;;;;;;5074125;28;20061;-56
2023/11/04 11:34:15;;;;;;;1.77;0.73;;;;;;;;;;5074133;28;20684;-55
2023/11/04 11:36:46;;;;;;;2.33;1.08;;;;;;;;;;5072308;28;20106;-55
2023/11/04 11:39:14;;;;;;;3.10;1.13;;;;;;;;;;5074186;28;20052;-53
2023/11/04 11:41:43;;;;;;;3.15;1.10;;;;;;;;;;5074249;28;20451;-52
2023/11/04 11:44:12;;;;;;;1.90;0.93;;;;;;;;;;5073661;28;20106;-53
2023/11/04 11:46:41;;;;;;;1.70;0.93;;;;;;;;;;5073578;28;20500;-55
2023/11/04 11:49:08;;;;;;;2.15;0.90;;;;;;;;;;5074157;28;20053;-55
2023/11/04 11:51:35;;;;;;;1.02;0.60;;;;;;;;;;5073889;28;20072;-55
2023/11/04 11:54:04;;;;;;;2.45;0.80;;;;;;;;;;5073618;28;20040;-56
2023/11/04 11:56:31;;;;;;;1.92;0.90;;;;;;;;;;5073480;28;20080;-52
2023/11/04 11:59:02;;;;;;;2.65;1.00;;;;;;;;;;5073670;28;20075;-51
2023/11/04 12:01:30;;;;;;;2.17;0.93;;;;;;;;;;5073421;28;20135;-52
2023/11/04 12:03:57;;;;;;;2.28;0.90;;;;;;;;;;5073260;28;20117;-50
2023/11/04 12:06:25;;;;;;;1.55;0.80;;;;;;;;;;5073745;28;20044;-56
2023/11/04 12:08:55;;;;;;;2.20;1.08;;;;;;;;;;5073743;28;20056;-55
2023/11/04 12:11:23;;;;;;;2.65;0.90;;;;;;;;;;5073543;28;20174;-54
2023/11/04 12:13:49;;;;;;;2.67;1.08;;;;;;;;;;5073058;28;20072;-54
2023/11/04 12:16:17;;;;;;;2.05;1.10;;;;;;;;;;5072994;28;20201;-53
2023/11/04 12:18:46;;;;;;;2.30;1.00;;;;;;;;;;5073287;28;20101;-54
2023/11/04 12:21:13;;;;;;;1.92;1.02;;;;;;;;;;5073181;28;20048;-56
2023/11/04 12:23:40;;;;;;;2.38;0.80;;;;;;;;;;5073008;28;20079;-53
2023/11/04 12:26:07;;;;;;;2.05;0.85;;;;;;;;;;5072870;28;20498;-55
2023/11/04 12:28:37;;;;;;;2.25;1.20;;;;;;;;;;5073056;28;20052;-55
2023/11/04 12:31:05;;;;;;;3.40;1.20;;;;;;;;;;5073012;28;20045;-51
2023/11/04 12:33:33;;;;;;;1.90;0.95;;;;;;;;;;5073001;28;20480;-56
2023/11/04 12:36:06;;;;;;;2.40;0.90;;;;;;;;;;5072783;28;20140;-51
2023/11/04 12:38:35;;;;;;;1.83;0.95;;;;;;;;;;5073029;28;20064;-52
2023/11/04 12:41:02;;;;;;;1.38;0.75;;;;;;;;;;5072979;28;20135;-54
2023/11/04 12:43:31;;;;;;;1.75;1.00;;;;;;;;;;5072627;28;20068;-56
2023/11/04 12:46:01;;;;;;;1.98;0.82;;;;;;;;;;5072401;28;20549;-53
2023/11/04 12:48:29;;;;;;;1.63;0.82;;;;;;;;;;5072198;28;20068;-53
2023/11/04 12:50:56;;;;;;;1.50;0.70;;;;;;;;;;5072517;28;20067;-54
2023/11/04 12:53:25;;;;;;;2.42;0.80;;;;;;;;;;5064032;28;20109;-53
2023/11/04 12:55:54;;;;;;;1.85;0.75;;;;;;;;;;5072395;28;20427;-54
2023/11/04 12:58:21;;;;;;;2.97;0.68;;;;;;;;;;5072868;28;20044;-54
2023/11/04 13:00:48;;;;;;;2.00;0.90;;;;;;;;;;5072424;28;20127;-55
2023/11/04 13:03:14;;;;;;;1.67;0.85;;;;;;;;;;5072206;28;20461;-54
2023/11/04 13:05:42;;;;;;;4.60;1.15;;;;;;;;;;5072107;28;20044;-56
2023/11/04 13:08:09;;;;;;;3.05;0.70;;;;;;;;;;5072094;28;20087;-52
2023/11/04 13:10:38;;;;;;;1.60;0.75;;;;;;;;;;5072374;28;20155;-55
2023/11/04 13:13:05;;;;;;;2.05;0.80;;;;;;;;;;5072642;28;20088;-49
2023/11/04 13:15:33;;;;;;;2.63;0.82;;;;;;;;;;5072019;28;20079;-52
2023/11/04 13:18:00;;;;;;;2.28;1.00;;;;;;;;;;5071727;28;20063;-56
2023/11/04 13:20:28;;;;;;;4.57;1.30;;;;;;;;;;5072272;28;20412;-54
2023/11/04 13:22:56;;;;;;;3.13;1.30;;;;;;;;;;5071752;28;20045;-54
2023/11/04 13:25:24;;;;;;;2.53;1.08;;;;;;;;;;5071726;28;20062;-57
2023/11/04 13:27:54;;;;;;;1.42;0.90;;;;;;;;;;5071840;28;20051;-52
2023/11/04 13:30:22;;;;;;;2.45;0.80;;;;;;;;;;5071929;28;20079;-56
2023/11/04 13:32:51;;;;;;;1.40;0.60;;;;;;;;;;5072030;28;20044;-50
2023/11/04 13:35:18;;;;;;;2.20;1.02;;;;;;;;;;5071841;28;20056;-54
2023/11/04 13:37:46;;;;;;;1.75;0.90;;;;;;;;;;5071504;28;20056;-56
2023/11/04 13:40:13;;;;;;;2.83;0.85;;;;;;;;;;5072079;28;20420;-55
2023/11/04 13:42:39;;;;;;;2.70;0.90;;;;;;;;;;5071776;28;20434;-53
2023/11/04 13:45:10;;;;;;;2.38;1.05;;;;;;;;;;5071314;28;20397;-55
2023/11/04 13:47:37;;;;;;;3.50;1.15;;;;;;;;;;5071510;28;20063;-55
2023/11/04 13:50:06;;;;;;;1.58;0.90;;;;;;;;;;5071660;28;20044;-54
2023/11/04 13:52:33;;;;;;;3.25;0.82;;;;;;;;;;5071818;28;20056;-55
2023/11/04 13:55:01;;;;;;;2.83;1.23;;;;;;;;;;5071588;28;20127;-51
2023/11/04 13:57:28;;;;;;;2.15;0.85;;;;;;;;;;5071990;28;20048;-57
2023/11/04 13:59:54;;;;;;;2.90;1.20;;;;;;;;;;5071216;28;20469;-51
2023/11/04 14:02:27;;;;;;;2.13;0.90;;;;;;;;;;5071661;28;20075;-55
2023/11/04 14:04:55;;;;;;;2.10;0.90;;;;;;;;;;5071335;28;20053;-54
2023/11/04 14:07:23;;;;;;;3.83;0.80;;;;;;;;;;5071599;28;20044;-54
2023/11/04 14:09:51;;;;;;;1.77;0.80;;;;;;;;;;5071699;28;20055;-55
2023/11/04 14:12:19;;;;;;;2.53;0.80;;;;;;;;;;5071755;28;20060;-55
2023/11/04 14:14:47;;;;;;;2.22;0.80;;;;;;;;;;5071288;28;20075;-54
2023/11/04 14:17:14;;;;;;;2.63;0.90;;;;;;;;;;5071235;28;20045;-56
2023/11/04 14:19:42;;;;;;;2.45;1.00;;;;;;;;;;5071877;28;20124;-54
2023/11/04 14:22:10;;;;;;;1.48;0.80;;;;;;;;;;5071386;28;20130;-52
2023/11/04 14:24:38;;;;;;;1.95;0.90;;;;;;;;;;5071196;28;20543;-55
2023/11/04 14:27:05;;;;;;;2.63;1.10;;;;;;;;;;5071661;28;20048;-55
2023/11/04 14:29:32;;;;;;;3.03;0.93;;;;;;;;;;5071720;28;20056;-56
2023/11/04 14:31:59;;;;;;;3.80;1.00;;;;;;;;;;5071465;28;20072;-56
2023/11/04 14:34:26;;;;;;;1.95;1.05;;;;;;;;;;5071643;28;20101;-54
2023/11/04 14:36:58;;;;;;;3.08;1.40;;;;;;;;;;5071698;28;20127;-54
2023/11/04 14:39:24;;;;;;;3.97;1.77;;;;;;;;;;5071541;28;20488;-54
2023/11/04 14:41:53;;;;;;;3.33;1.27;;;;;;;;;;5071588;28;20041;-56
2023/11/04 14:44:20;;;;;;;3.67;1.20;;;;;;;;;;5071231;28;20079;-53
2023/11/04 14:46:50;;;;;;;4.22;1.10;;;;;;;;;;5070906;28;20048;-53
2023/11/04 14:49:17;;;;;;;3.28;1.10;;;;;;;;;;5051362;28;20056;-54
2023/11/04 14:51:43;;;;;;;3.10;1.02;;;;;;;;;;5051169;28;20060;-54
2023/11/04 14:54:13;;;;;;;2.78;1.13;;;;;;;;;;5051017;28;20053;-54
2023/11/04 14:56:39;;;;;;;4.15;0.90;;;;;;;;;;5050705;28;20076;-54